Nearby METAR Reports

 

KPMD - Palmdale, California, USA
Distance from station: NNE 12mi, 19km
Updated: Fri, 05-Jun-2020 1:53am PDT
Clear
Clear
 Wind from SSE
Wind: SSE 17 mph , 28 km/h
Temperature: 68°F , 20°C
Dew Point: 52°F , 11°C
Humidity: 56%
Barometer: 29.77 inHg , 1008.1 hPa
Clouds: Clear
Visibility: 10 miles , 16 km
2020/06/05 08:53 KPMD 050853Z AUTO 16015KT 10SM CLR 20/11 A2977 RMK AO2 SLP049 T02000111 56012
KWJF - Lancaster/Fox, California, USA
Distance from station: N 17mi, 27km
Updated: Fri, 05-Jun-2020 1:56am PDT
Clear
Clear
 Wind from W
Wind: W 7 mph , 11 km/h
Temperature: 72°F , 22°C
Dew Point: 45°F , 7°C
Humidity: 38%
Barometer: 29.76 inHg , 1007.8 hPa
Clouds: Clear
Visibility: 10 miles , 16 km
2020/06/05 08:56 KWJF 050856Z AUTO 26006KT 10SM CLR 22/07 A2976 RMK AO2 SLP052 T02220067 56014
 
KMWS - Mount Wilson, California, USA
Distance from station: SSE 18mi, 30km
Updated: Wed, 13-May-2015 6:45am PDT
NOT Current

 Wind from S
Wind: S 3 mph , 6 km/h, Gust: 5 mph , 7 km/h
Temperature: 43°F , 6°C
Dew Point: -0°F , -18°C
Humidity: 16%
2015/05/13 13:45 KMWS 131345Z 18003G04KT 06/M18 RMK SNOW DEPTH 1.00
KWHP - La / Whiteman, California, USA
Distance from station: SW 21mi, 34km
Updated: Thu, 04-Jun-2020 7:55pm PDT
NOT Current
Clear
Clear
 Wind from ESE
Wind: ESE 7 mph , 11 km/h
Temperature: 68°F , 20°C
Dew Point: 57°F , 14°C
Humidity: 69%
Barometer: 29.85 inHg , 1010.8 hPa
Clouds: Clear
Visibility: 10 miles , 16 km
2020/06/05 02:55 KWHP 050255Z 12006KT 10SM SKC 20/14 A2985
 
KBUR - Burbank, California, USA
Distance from station: SSW 22mi, 35km
Updated: Fri, 05-Jun-2020 2:53am PDT
Overcast
Overcast
 Wind from S
Wind: S 8 mph , 13 km/h
Temperature: 64°F , 18°C
Dew Point: 55°F , 13°C
Humidity: 73%
Barometer: 29.80 inHg , 1009.1 hPa
Clouds: Overcast
Visibility: 10 miles , 16 km
Cloud details: Overcast 1500 ft
2020/06/05 09:53 KBUR 050953Z AUTO 17007KT 10SM OVC015 18/13 A2980 RMK AO2 SLP079 T01780133 $
KVNY - Van Nuys, California, USA
Distance from station: SW 25mi, 40km
Updated: Fri, 05-Jun-2020 2:51am PDT
Overcast
Overcast
 Wind from S
Wind: S 9 mph , 15 km/h
Temperature: 64°F , 18°C
Dew Point: 55°F , 13°C
Humidity: 73%
Barometer: 29.80 inHg , 1009.1 hPa
Clouds: Overcast
Visibility: 10 miles , 16 km
Cloud details: Overcast 1600 ft
2020/06/05 09:51 KVNY 050951Z AUTO 17008KT 10SM OVC016 18/13 A2980 RMK AO2 SLP084 T01830133 $
 
KEDW - Edwards Afb, California, USA
Distance from station: NNE 33mi, 53km
Updated: Fri, 05-Jun-2020 1:58am PDT
Clear
Clear
 Wind from SSW
Wind: SSW 8 mph , 13 km/h
Temperature: 72°F , 22°C
Dew Point: 46°F , 8°C
Humidity: 41%
Barometer: 29.73 inHg , 1006.8 hPa
Clouds: Clear
Visibility: 10 miles , 16 km
2020/06/05 08:58 KEDW 050858Z AUTO 21007KT 10SM CLR 22/08 A2973 RMK AO2 SLP038 T02150077 56009
KSMO - Santa Monica, California, USA
Distance from station: SSW 35mi, 57km
Updated: Fri, 05-Jun-2020 2:51am PDT
Overcast
Overcast
 Wind from S
Wind: S 9 mph , 15 km/h
Temperature: 64°F , 18°C
Dew Point: 55°F , 13°C
Humidity: 73%
Barometer: 29.81 inHg , 1009.5 hPa
Clouds: Overcast
Visibility: 10 miles , 16 km
Cloud details: Overcast 2100 ft
2020/06/05 09:51 KSMO 050951Z AUTO 17008KT 10SM OVC021 18/13 A2981 RMK AO2 SLP093 T01830133
 
KLAX - Los Angeles, California, USA
Distance from station: SSW 39mi, 63km
Updated: Fri, 05-Jun-2020 2:53am PDT
Overcast
Overcast
 Wind from SE
Wind: SE 7 mph , 11 km/h
Temperature: 64°F , 18°C
Dew Point: 54°F , 12°C
Humidity: 68%
Barometer: 29.81 inHg , 1009.5 hPa
Clouds: Overcast
Visibility: 10 miles , 16 km
Cloud details: Overcast 1600 ft
2020/06/05 09:53 KLAX 050953Z 14006KT 10SM OVC016 18/12 A2981 RMK AO2 SLP092 T01830122 $
KMHV - Mojave, California, USA
Distance from station: N 41mi, 66km
Updated: Fri, 05-Jun-2020 2:20am PDT
Clear
Clear
 Wind from SSW
Wind: SSW 8 mph , 13 km/h
Temperature: 72°F , 22°C
Dew Point: 48°F , 9°C
Humidity: 44%
Barometer: 29.76 inHg , 1007.8 hPa
Clouds: Clear
Visibility: 10 miles , 16 km
2020/06/05 09:20 KMHV 050920Z AUTO 20007KT 10SM CLR 22/09 A2976 RMK A01
 
KFUL - Fullerton, California, USA
Distance from station: SSE 44mi, 70km
Updated: Fri, 05-Jun-2020 2:53am PDT
Overcast
Overcast
 Wind from S
Wind: S 6 mph , 9 km/h
Temperature: 66°F , 19°C
Dew Point: 57°F , 14°C
Humidity: 73%
Barometer: 29.81 inHg , 1009.5 hPa
Clouds: Overcast
Visibility: 10 miles , 16 km
Cloud details: Overcast 1500 ft
2020/06/05 09:53 KFUL 050953Z AUTO 18005KT 10SM OVC015 19/14 A2981 RMK AO2 SLP092 T01890139
KONT - Ontario, California, USA
Distance from station: SE 45mi, 72km
Updated: Fri, 05-Jun-2020 2:53am PDT
Overcast
Overcast
 Wind from SSW
Wind: SSW 6 mph , 9 km/h
Temperature: 64°F , 18°C
Dew Point: 57°F , 14°C
Humidity: 78%
Barometer: 29.80 inHg , 1009.1 hPa
Clouds: Overcast
Visibility: 10 miles , 16 km
Cloud details: Overcast 1400 ft
2020/06/05 09:53 KONT 050953Z 21005KT 10SM OVC014 18/14 A2980 RMK AO2 SLP077 T01830144
 
KLGB - Long Beach, California, USA
Distance from station: S 46mi, 74km
Updated: Fri, 05-Jun-2020 2:53am PDT
Overcast
Overcast
 Wind from S
Wind: S 6 mph , 9 km/h
Temperature: 64°F , 18°C
Dew Point: 54°F , 12°C
Humidity: 68%
Barometer: 29.82 inHg , 1009.8 hPa
Clouds: Overcast
Visibility: 10 miles , 16 km
Cloud details: Overcast 2100 ft
2020/06/05 09:53 KLGB 050953Z AUTO 19005KT 10SM OVC021 18/12 A2982 RMK AO2 SLP096 T01780122
KVCV - Victorville, California, USA
Distance from station: E 46mi, 74km
Updated: Thu, 04-Jun-2020 7:46pm PDT
NOT Current
Clear
Clear
 Wind from SSE
Wind: SSE 15 mph , 24 km/h
Barometer: 29.79 inHg , 1008.8 hPa
Clouds: Clear
Visibility: 10 miles , 16 km
2020/06/05 02:46 KVCV 050246Z 16013KT 10SM SKC A2979
 
KTSP - Tehachapi, California, USA
Distance from station: NNW 48mi, 77km
Updated: Fri, 05-Jun-2020 2:35am PDT
Clear
Clear
 Wind from calm
Wind: Calm
Temperature: 63°F , 17°C
Dew Point: 43°F , 6°C
Humidity: 49%
Barometer: 29.88 inHg , 1011.9 hPa
Clouds: Clear
Visibility: 10 miles , 16 km
2020/06/05 09:35 KTSP 050935Z AUTO 00000KT 10SM CLR 17/06 A2988 RMK AO2